Sierra Vista, AZ (85650)

1:47 AM MST on August 29, 2016 (GMT -0700)
Canyon De Flores -Cochise County (N0NBH) | | Change Station

Elev 4645 ft 31.50 °N, 110.26 °W | Updated 0 second ago

Clear
Clear
63.7 °F
Feels Like 63.7 °F
N
0.0
Wind Variable Wind from WSW
Gusts 0.0 mph

Today
High -- | Low -- °F
--% Chance of Precip.
Yesterday
High -- | Low -- °F
Precip. -- in
Pressure 29.95 in
Visibility 10.0 miles
Clouds Clear
Dew Point 40 °F
Humidity 43%
Rainfall 0.00 in
Snow Depth Not available.
5:55 AM 6:47 PM
Waning Crescent, 10% visible
METAR KFHU 290758Z AUTO 22004KT 10SM CLR 20/04 A3016 RMK AO2 SLP140 T01970035
Pressure 29.95 in
Visibility 10.0 miles
Clouds Clear
Dew Point 40 °F
Humidity 43%
Rainfall 0.00 in
Snow Depth Not available.
5:55 AM 6:47 PM
Waning Crescent, 10% visible
METAR KFHU 290758Z AUTO 22004KT 10SM CLR 20/04 A3016 RMK AO2 SLP140 T01970035

10-Day Weather Forecast

Almanac

Astronomy

Aug. 29, 2016 Rise Set
Actual Time
Civil Twilight
Nautical Twilight
Astronomical Twilight
Moon
Length of Visible Light
Length of Day
Tomorrow will be .
, % of the Moon is Illuminated

Today's Extremes

State Highs State Lows

Community

WunderPhotos

Upload Photos

1,935,800 photos uploaded!

WunderBlog® & News

Nearby

Air Quality

  Air Quality AQ Index Pollutant
Not available.

Snow Depth

Station Depth Elevation

Earthquake Activity

City Distance Mag. Time & Date
Minimum magnitude displayed is 2.5.

Coastal Water Temperatures

Place Temperature

Stations

Nearby Weather Stations

Station Location Temp. Windchill Dew Point Humidity Wind Precip. Elev Updated Type
                   

Watches & Warnings

There are currently no watches in effect.